Time;durP1;ratioP1;P1;durP2;ratioP2;P2;SDS_P1;SDS_P2;PMS_P1;PMS_P2;Temp;Humidity;BMP_temperature;BMP_pressure;BME280_temperature;BME280_humidity;BME280_pressure;Samples;Min_cycle;Max_cycle;Signal;HPM_P1;HPM_P2
2022/09/15 00:01:02;;;;;;;2.50;2.30;;;22.30;90.30;;;-142.21;100.00;112049.66;5133961;27;20201;-77
2022/09/15 00:03:29;;;;;;;2.90;2.03;;;22.20;90.30;;;-142.21;100.00;112049.66;5133606;27;20203;-78
2022/09/15 00:05:57;;;;;;;3.53;1.80;;;22.20;90.10;;;-142.21;100.00;112049.66;5115778;27;20297;-77
2022/09/15 00:08:25;;;;;;;2.03;1.60;;;22.20;90.00;;;-142.21;100.00;112049.66;5134738;27;20207;-78
2022/09/15 00:10:56;;;;;;;2.50;1.70;;;22.20;90.10;;;-142.21;100.00;112049.66;5133581;27;20286;-77
2022/09/15 00:13:24;;;;;;;1.47;1.33;;;22.20;89.90;;;-142.21;100.00;112049.66;5134252;27;20226;-77
2022/09/15 00:15:54;;;;;;;3.17;1.70;;;22.10;89.80;;;-142.21;100.00;112049.66;5133894;27;20612;-77
2022/09/15 00:18:21;;;;;;;2.70;1.47;;;22.10;89.40;;;-142.21;100.00;112049.66;5133943;27;20660;-76
2022/09/15 00:20:49;;;;;;;1.53;1.43;;;22.10;89.40;;;-142.21;100.00;112049.66;5133396;27;20291;-76
2022/09/15 00:23:17;;;;;;;2.57;1.30;;;22.00;89.10;;;-142.21;100.00;112049.66;5080882;27;20676;-78
2022/09/15 00:25:46;;;;;;;1.60;1.40;;;21.90;89.50;;;-142.21;100.00;112049.66;5133089;27;20219;-79
2022/09/15 00:28:16;;;;;;;1.97;1.40;;;21.80;89.50;;;-142.21;100.00;112049.66;5133723;27;20195;-79
2022/09/15 00:30:45;;;;;;;2.20;1.53;;;21.70;90.00;;;-142.21;100.00;112049.66;5135269;27;20239;-78
2022/09/15 00:33:15;;;;;;;2.23;1.60;;;21.60;89.90;;;-142.21;100.00;112049.66;5133495;27;20274;-77
2022/09/15 00:35:46;;;;;;;1.47;1.27;;;21.50;90.10;;;-142.21;100.00;112049.66;5133360;27;20194;-79
2022/09/15 00:38:18;;;;;;;2.03;1.50;;;21.50;89.90;;;-142.21;100.00;112049.66;5133476;27;20218;-77
2022/09/15 00:40:48;;;;;;;1.90;1.40;;;21.50;90.10;;;-142.21;100.00;112049.66;5133229;27;20651;-79
2022/09/15 00:43:18;;;;;;;1.80;1.47;;;21.50;90.10;;;-142.21;100.00;112049.66;5097190;27;20554;-79
2022/09/15 00:45:45;;;;;;;1.57;1.40;;;21.60;90.30;;;-142.21;100.00;112049.66;5115130;27;20219;-79
2022/09/15 00:48:22;;;;;;;1.40;1.30;;;21.60;89.90;;;-142.21;100.00;112049.66;5132772;27;20199;-79
2022/09/15 00:50:57;;;;;;;2.27;1.37;;;21.50;89.90;;;-142.21;100.00;112049.66;5133020;27;20186;-79
2022/09/15 00:53:26;;;;;;;1.87;1.47;;;21.40;90.10;;;-142.21;100.00;112049.66;5132323;27;20271;-79
2022/09/15 00:55:56;;;;;;;1.80;1.40;;;21.40;90.20;;;-142.21;100.00;112049.66;5133097;27;20550;-79
2022/09/15 00:58:29;;;;;;;1.13;1.03;;;21.40;90.30;;;-142.21;100.00;112049.66;5133408;27;20309;-80
2022/09/15 01:01:00;;;;;;;1.50;1.40;;;21.40;90.40;;;-142.21;100.00;112049.66;5132276;27;20206;-80
2022/09/15 01:03:32;;;;;;;1.30;1.20;;;21.40;90.30;;;-142.21;100.00;112049.66;5133226;27;20209;-79
2022/09/15 01:06:07;;;;;;;3.07;1.50;;;21.40;90.40;;;-142.21;100.00;112049.66;5106587;27;20210;-79
2022/09/15 01:08:40;;;;;;;3.23;1.27;;;21.40;90.30;;;-142.21;100.00;112049.66;5133087;27;20191;-78
2022/09/15 01:11:08;;;;;;;1.43;1.20;;;21.40;90.20;;;-142.21;100.00;112049.66;5133898;27;20243;-78
2022/09/15 01:13:36;;;;;;;2.23;1.20;;;21.40;90.30;;;-142.21;100.00;112049.66;5132499;27;20280;-78
2022/09/15 01:16:15;;;;;;;1.30;1.13;;;21.50;90.10;;;-142.21;100.00;112049.66;5132030;27;20230;-79
2022/09/15 01:18:58;;;;;;;2.37;1.40;;;21.50;90.10;;;-142.21;100.00;112049.66;5131931;27;20234;-77
2022/09/15 01:21:37;;;;;;;2.40;1.47;;;21.50;90.20;;;-142.21;100.00;112049.66;5133334;27;20524;-77
2022/09/15 01:24:50;;;;;;;1.63;1.30;;;21.50;90.30;;;-142.21;100.00;112049.66;5132392;27;20209;-79
2022/09/15 01:28:13;;;;;;;1.30;1.20;;;21.40;90.40;;;-142.21;100.00;112049.66;5076572;27;20230;-78
2022/09/15 01:30:51;;;;;;;6.07;1.40;;;21.50;90.40;;;-142.21;100.00;112049.66;5123102;27;20669;-78
2022/09/15 01:33:32;;;;;;;1.60;1.50;;;21.40;90.30;;;-142.21;100.00;112049.66;5132894;27;20195;-79
2022/09/15 01:36:08;;;;;;;2.67;1.70;;;21.40;90.50;;;-142.21;100.00;112049.66;5125574;27;20593;-79
2022/09/15 01:38:55;;;;;;;3.50;1.67;;;21.30;90.60;;;-142.21;100.00;112049.66;5096324;28;20217;-79
2022/09/15 01:41:31;;;;;;;4.03;1.97;;;21.30;90.80;;;-142.21;100.00;112049.66;5133005;27;20197;-79
2022/09/15 01:44:07;;;;;;;4.53;1.30;;;21.30;90.70;;;-142.21;100.00;112049.66;5079104;28;20201;-79
2022/09/15 01:46:45;;;;;;;3.40;1.60;;;21.40;90.60;;;-142.21;100.00;112049.66;5132756;27;20207;-78
2022/09/15 01:49:17;;;;;;;3.33;1.70;;;21.40;90.60;;;-142.21;100.00;112049.66;5133152;28;20191;-79
2022/09/15 01:51:48;;;;;;;6.00;1.70;;;21.50;90.50;;;-142.21;100.00;112049.66;5131953;28;20218;-79
2022/09/15 01:54:20;;;;;;;1.87;1.37;;;21.40;90.50;;;-142.21;100.00;112049.66;5132881;28;20187;-79
2022/09/15 01:56:47;;;;;;;4.17;1.77;;;21.40;90.60;;;-142.21;100.00;112049.66;5132246;28;20616;-78
2022/09/15 01:59:14;;;;;;;4.07;1.80;;;21.50;90.60;;;-142.21;100.00;112049.66;5132329;28;20199;-79
2022/09/15 02:01:50;;;;;;;3.10;2.10;;;21.50;90.50;;;-142.21;100.00;112049.66;5115370;28;20199;-77
2022/09/15 02:04:26;;;;;;;3.27;1.80;;;21.50;90.50;;;-142.21;100.00;112049.66;5132581;28;20194;-77
2022/09/15 02:06:59;;;;;;;2.77;1.50;;;21.50;90.50;;;-142.21;100.00;112049.66;5098104;28;20218;-79
2022/09/15 02:09:35;;;;;;;2.43;1.83;;;21.50;91.00;;;-142.21;100.00;112049.66;5132755;28;20218;-79
2022/09/15 02:12:13;;;;;;;3.87;1.70;;;21.60;90.70;;;-142.21;100.00;112049.66;5061886;28;20214;-76
2022/09/15 02:14:55;;;;;;;3.97;1.87;;;21.50;90.80;;;-142.21;100.00;112049.66;5132005;28;20305;-78
2022/09/15 02:17:31;;;;;;;3.57;2.10;;;21.40;91.00;;;-142.21;100.00;112049.66;5083085;28;20203;-79
2022/09/15 02:20:14;;;;;;;2.30;1.60;;;21.40;91.00;;;-142.21;100.00;112049.66;5113172;28;20278;-78
2022/09/15 02:22:49;;;;;;;2.43;1.80;;;21.50;91.10;;;-142.21;100.00;112049.66;5132571;28;20206;-79
2022/09/15 02:25:22;;;;;;;3.07;2.27;;;21.50;91.00;;;-142.21;100.00;112049.66;5137300;27;20263;-78
2022/09/15 02:27:57;;;;;;;4.57;1.80;;;21.40;91.10;;;-142.21;100.00;112049.66;5135637;27;20187;-78
2022/09/15 02:30:25;;;;;;;2.20;1.93;;;21.40;91.10;;;-142.21;100.00;112049.66;5118359;27;20202;-78
2022/09/15 02:32:59;;;;;;;2.73;1.80;;;21.50;91.00;;;-142.21;100.00;112049.66;5135790;27;20714;-79
2022/09/15 02:35:29;;;;;;;3.30;1.80;;;21.60;91.10;;;-142.21;100.00;112049.66;5135842;27;20191;-76
2022/09/15 02:37:58;;;;;;;3.07;1.90;;;21.60;90.80;;;-142.21;100.00;112049.66;5135525;27;20234;-79
2022/09/15 02:40:25;;;;;;;2.27;1.80;;;21.60;90.80;;;-142.21;100.00;112049.66;5136070;27;20199;-78
2022/09/15 02:42:54;;;;;;;2.93;1.80;;;21.70;91.00;;;-142.21;100.00;112049.66;5117033;27;20667;-79
2022/09/15 02:45:22;;;;;;;2.33;1.87;;;21.60;90.90;;;-142.21;100.00;112049.66;5135855;27;20591;-79
2022/09/15 02:47:50;;;;;;;3.03;1.80;;;21.60;91.00;;;-142.21;100.00;112049.66;5135805;27;20203;-79
2022/09/15 02:50:19;;;;;;;5.30;2.17;;;21.50;91.00;;;-142.21;100.00;112049.66;5114436;28;20207;-77
2022/09/15 02:52:47;;;;;;;4.57;2.20;;;21.60;91.10;;;-142.21;100.00;112049.66;5110772;27;20203;-79
2022/09/15 02:55:15;;;;;;;3.73;2.20;;;21.50;91.00;;;-142.21;100.00;112049.66;5135586;27;20286;-79
2022/09/15 02:57:42;;;;;;;3.87;1.93;;;21.50;91.10;;;-142.21;100.00;112049.66;5117175;27;20214;-78
2022/09/15 03:00:15;;;;;;;4.40;2.10;;;21.50;91.10;;;-142.21;100.00;112049.66;5116828;27;20218;-77
2022/09/15 03:02:44;;;;;;;5.13;1.90;;;21.50;91.30;;;-142.21;100.00;112049.66;5135965;27;20242;-80
2022/09/15 03:05:14;;;;;;;3.30;1.80;;;21.40;91.20;;;-142.21;100.00;112049.66;5135406;27;20242;-76
2022/09/15 03:07:43;;;;;;;1.87;1.70;;;21.50;91.10;;;-142.21;100.00;112049.66;5135324;27;20231;-79
2022/09/15 03:10:12;;;;;;;2.77;1.83;;;21.40;91.10;;;-142.21;100.00;112049.66;5119967;27;20192;-79
2022/09/15 03:12:41;;;;;;;2.10;1.90;;;21.40;91.20;;;-142.21;100.00;112049.66;5135355;27;20192;-79
2022/09/15 03:15:11;;;;;;;3.70;2.03;;;21.40;91.20;;;-142.21;100.00;112049.66;5134784;27;20218;-79
2022/09/15 03:17:42;;;;;;;6.27;1.80;;;21.40;91.00;;;-142.21;100.00;112049.66;5135433;27;20203;-78
2022/09/15 03:20:13;;;;;;;2.70;1.60;;;21.40;91.10;;;-142.21;100.00;112049.66;5134958;27;20186;-78
2022/09/15 03:22:42;;;;;;;4.70;2.10;;;21.40;91.00;;;-142.21;100.00;112049.66;5134245;27;20193;-78
2022/09/15 03:25:10;;;;;;;2.17;1.83;;;21.40;90.90;;;-142.21;100.00;112049.66;5134819;27;20202;-79
2022/09/15 03:27:38;;;;;;;3.43;1.60;;;21.40;91.00;;;-142.21;100.00;112049.66;5116920;27;20215;-78
2022/09/15 03:30:08;;;;;;;2.13;1.70;;;21.40;90.90;;;-142.21;100.00;112049.66;5134319;27;20195;-80
2022/09/15 03:32:36;;;;;;;2.77;1.70;;;21.50;90.80;;;-142.21;100.00;112049.66;5134972;27;20590;-79
2022/09/15 03:35:04;;;;;;;1.70;1.60;;;21.50;90.70;;;-142.21;100.00;112049.66;5134253;27;20221;-79
2022/09/15 03:37:32;;;;;;;2.40;1.40;;;21.40;90.80;;;-142.21;100.00;112049.66;5116656;27;20558;-79
2022/09/15 03:40:03;;;;;;;2.07;1.70;;;21.50;90.70;;;-142.21;100.00;112049.66;5134421;27;20206;-79
2022/09/15 03:42:31;;;;;;;2.87;1.60;;;21.50;90.60;;;-142.21;100.00;112049.66;5133944;27;20663;-79
2022/09/15 03:44:58;;;;;;;2.10;1.60;;;21.40;90.60;;;-142.21;100.00;112049.66;5134741;27;20199;-78
2022/09/15 03:47:25;;;;;;;3.07;1.90;;;21.40;90.60;;;-142.21;100.00;112049.66;5136194;27;20219;-77
2022/09/15 03:49:53;;;;;;;1.60;1.30;;;21.40;90.60;;;-142.21;100.00;112049.66;5099098;27;20252;-79
2022/09/15 03:52:20;;;;;;;2.43;1.60;;;21.40;90.60;;;-142.21;100.00;112049.66;5135284;27;20566;-78
2022/09/15 03:54:49;;;;;;;2.20;1.43;;;21.50;90.50;;;-142.21;100.00;112049.66;5134670;27;20571;-79
2022/09/15 03:57:17;;;;;;;2.93;1.40;;;21.50;90.50;;;-142.21;100.00;112049.66;5134589;27;20210;-78
2022/09/15 03:59:47;;;;;;;1.87;1.63;;;21.40;90.60;;;-142.21;100.00;112049.66;5134806;27;20203;-77
2022/09/15 04:02:15;;;;;;;2.57;1.53;;;21.50;90.50;;;-142.21;100.00;112049.66;5134416;27;20267;-78
2022/09/15 04:04:42;;;;;;;1.80;1.53;;;21.50;90.40;;;-142.21;100.00;112049.66;5134824;27;20202;-77
2022/09/15 04:07:09;;;;;;;3.33;1.50;;;21.60;90.40;;;-142.21;100.00;112049.66;5134281;27;20640;-77
2022/09/15 04:09:36;;;;;;;1.90;1.70;;;21.50;90.20;;;-142.21;100.00;112049.66;5081971;27;20261;-77
2022/09/15 04:12:04;;;;;;;3.37;1.53;;;21.50;90.30;;;-142.21;100.00;112049.66;5133796;27;20268;-78
2022/09/15 04:14:33;;;;;;;2.43;1.27;;;21.50;90.30;;;-142.21;100.00;112049.66;5133927;27;20226;-78
2022/09/15 04:17:00;;;;;;;4.57;1.60;;;21.50;90.20;;;-142.21;100.00;112049.66;5133890;27;20651;-79
2022/09/15 04:19:27;;;;;;;1.70;1.60;;;21.50;90.30;;;-142.21;100.00;112049.66;5116723;27;20559;-77
2022/09/15 04:21:54;;;;;;;2.67;1.40;;;21.50;90.30;;;-142.21;100.00;112049.66;5133463;27;20225;-76
2022/09/15 04:24:21;;;;;;;2.90;1.40;;;21.60;90.20;;;-142.21;100.00;112049.66;5133792;27;20202;-76
2022/09/15 04:26:49;;;;;;;2.00;1.40;;;21.60;90.00;;;-142.21;100.00;112049.66;5133617;27;20226;-78
2022/09/15 04:29:17;;;;;;;3.23;1.60;;;21.60;90.00;;;-142.21;100.00;112049.66;5133712;27;20199;-77
2022/09/15 04:31:47;;;;;;;2.33;1.23;;;21.60;89.90;;;-142.21;100.00;112049.66;5133326;27;20288;-76
2022/09/15 04:34:20;;;;;;;6.33;1.60;;;21.50;90.10;;;-142.21;100.00;112049.66;5133289;27;20195;-78
2022/09/15 04:36:47;;;;;;;2.07;1.67;;;21.40;90.20;;;-142.21;100.00;112049.66;5134294;27;20290;-79
2022/09/15 04:39:14;;;;;;;2.33;1.60;;;21.40;90.40;;;-142.21;100.00;112049.66;5133000;27;20555;-79
2022/09/15 04:41:42;;;;;;;3.03;1.63;;;21.40;90.30;;;-142.21;100.00;112049.66;5129786;27;20205;-77
2022/09/15 04:44:09;;;;;;;4.10;1.80;;;21.40;90.40;;;-142.21;100.00;112049.66;5132954;27;20226;-80
2022/09/15 04:46:36;;;;;;;2.00;1.53;;;21.30;90.50;;;-142.21;100.00;112049.66;5133479;27;20215;-78
2022/09/15 04:49:04;;;;;;;3.30;1.87;;;21.20;90.60;;;-142.21;100.00;112049.66;5132261;27;20214;-79
2022/09/15 04:51:31;;;;;;;3.93;1.43;;;21.20;90.80;;;-142.21;100.00;112049.66;5133925;27;20203;-79
2022/09/15 04:53:59;;;;;;;2.10;1.83;;;21.30;90.70;;;-142.21;100.00;112049.66;5132500;27;20285;-79
2022/09/15 04:56:27;;;;;;;2.20;1.57;;;21.30;90.60;;;-142.21;100.00;112049.66;5133302;27;20195;-77
2022/09/15 04:58:58;;;;;;;4.13;1.63;;;21.20;90.60;;;-142.21;100.00;112049.66;5133081;27;20195;-79
2022/09/15 05:01:28;;;;;;;4.37;1.60;;;21.20;90.70;;;-142.21;100.00;112049.66;5132747;27;20208;-78
2022/09/15 05:03:56;;;;;;;2.37;1.20;;;21.20;90.80;;;-142.21;100.00;112049.66;5132917;27;20276;-79
2022/09/15 05:06:27;;;;;;;3.17;1.60;;;21.20;91.20;;;-142.21;100.00;112049.66;5133157;27;20199;-79
2022/09/15 05:08:58;;;;;;;2.07;1.50;;;21.30;90.90;;;-142.21;100.00;112049.66;5132500;27;20191;-77
2022/09/15 05:11:27;;;;;;;4.20;1.70;;;21.30;90.80;;;-142.21;100.00;112049.66;5133414;27;20187;-75
2022/09/15 05:13:55;;;;;;;3.03;2.10;;;21.30;90.80;;;-142.21;100.00;112049.66;5132900;27;20759;-76
2022/09/15 05:16:27;;;;;;;2.07;1.60;;;21.30;90.90;;;-142.21;100.00;112049.66;5133283;27;20203;-78
2022/09/15 05:18:59;;;;;;;1.70;1.53;;;21.30;91.00;;;-142.21;100.00;112049.66;5133403;27;20276;-80
2022/09/15 05:21:28;;;;;;;3.70;1.40;;;21.30;90.90;;;-142.21;100.00;112049.66;5133200;27;20195;-80
2022/09/15 05:23:56;;;;;;;2.03;1.60;;;21.30;91.00;;;-142.21;100.00;112049.66;5131605;27;20754;-79
2022/09/15 05:26:25;;;;;;;3.07;1.57;;;21.30;91.00;;;-142.21;100.00;112049.66;5133257;27;20205;-79
2022/09/15 05:28:54;;;;;;;3.40;1.67;;;21.30;90.90;;;-142.21;100.00;112049.66;5113804;27;20243;-79
2022/09/15 05:31:24;;;;;;;5.27;2.10;;;21.30;90.90;;;-142.21;100.00;112049.66;5132703;27;20303;-79
2022/09/15 05:33:52;;;;;;;2.53;1.90;;;21.30;91.00;;;-142.21;100.00;112049.66;5132592;27;20205;-75
2022/09/15 05:36:23;;;;;;;2.90;1.70;;;21.30;91.00;;;-142.21;100.00;112049.66;5132021;27;20289;-75
2022/09/15 05:38:55;;;;;;;3.33;1.80;;;21.40;90.90;;;-142.21;100.00;112049.66;5132699;27;20270;-74
2022/09/15 05:41:23;;;;;;;2.50;2.30;;;21.40;90.80;;;-142.21;100.00;112049.66;5133211;27;20195;-75
2022/09/15 05:43:51;;;;;;;2.33;1.80;;;21.50;90.70;;;-142.21;100.00;112049.66;5132200;27;20235;-78
2022/09/15 05:46:20;;;;;;;2.87;1.77;;;21.40;90.70;;;-142.21;100.00;112049.66;5132144;27;20223;-80
2022/09/15 05:48:47;;;;;;;3.70;1.93;;;21.50;90.70;;;-142.21;100.00;112049.66;5132456;28;20282;-79
2022/09/15 05:51:15;;;;;;;2.97;2.07;;;21.50;90.60;;;-142.21;100.00;112049.66;5130903;28;20558;-78
2022/09/15 05:53:42;;;;;;;4.27;1.93;;;21.60;90.60;;;-142.21;100.00;112049.66;5131800;28;20195;-78
2022/09/15 05:56:15;;;;;;;1.93;1.60;;;21.60;90.50;;;-142.21;100.00;112049.66;5132124;28;20199;-78
2022/09/15 05:58:46;;;;;;;5.83;2.17;;;21.60;90.50;;;-142.21;100.00;112049.66;5131946;28;20240;-78
2022/09/15 06:01:18;;;;;;;2.20;2.00;;;21.70;90.40;;;-142.21;100.00;112049.66;5133206;27;20211;-79
2022/09/15 06:03:50;;;;;;;3.30;2.00;;;21.60;90.60;;;-142.21;100.00;112049.66;5134987;27;20211;-78
2022/09/15 06:06:18;;;;;;;2.83;2.20;;;21.60;90.40;;;-142.21;100.00;112049.66;5121843;27;20249;-81
2022/09/15 06:08:48;;;;;;;4.13;1.93;;;21.60;90.40;;;-142.21;100.00;112049.66;5136428;27;20215;-77
2022/09/15 06:11:20;;;;;;;2.07;1.87;;;21.50;90.60;;;-142.21;100.00;112049.66;5136330;27;20208;-77
2022/09/15 06:13:50;;;;;;;3.13;2.20;;;21.60;90.70;;;-142.21;100.00;112049.66;5136351;27;20215;-77
2022/09/15 06:16:24;;;;;;;4.33;2.17;;;21.60;90.60;;;-142.21;100.00;112049.66;5115909;28;20302;-78
2022/09/15 06:18:54;;;;;;;2.77;1.97;;;21.60;90.50;;;-142.21;100.00;112049.66;5133993;27;20192;-77
2022/09/15 06:21:23;;;;;;;3.23;2.00;;;21.70;90.50;;;-142.21;100.00;112049.66;5135861;27;20199;-79
2022/09/15 06:23:54;;;;;;;2.20;2.00;;;21.60;90.50;;;-142.21;100.00;112049.66;5136324;27;20605;-78
2022/09/15 06:26:24;;;;;;;2.80;1.90;;;21.60;90.60;;;-142.21;100.00;112049.66;5135896;27;20191;-79
2022/09/15 06:28:54;;;;;;;2.80;2.20;;;21.60;90.60;;;-142.21;100.00;112049.66;5135846;27;20219;-79
2022/09/15 06:31:22;;;;;;;3.77;1.87;;;21.50;90.70;;;-142.21;100.00;112049.66;5135687;27;20230;-79
2022/09/15 06:33:51;;;;;;;2.83;2.43;;;21.40;90.80;;;-142.21;100.00;112049.66;5136006;27;20203;-78
2022/09/15 06:36:21;;;;;;;2.80;2.10;;;21.40;91.30;;;-142.21;100.00;112049.66;5135365;27;20203;-79
2022/09/15 06:38:48;;;;;;;2.97;1.70;;;21.40;91.00;;;-142.21;100.00;112049.66;5136703;27;20286;-79
2022/09/15 06:41:16;;;;;;;2.10;1.90;;;21.50;90.80;;;-142.21;100.00;112049.66;5135653;27;20656;-78
2022/09/15 06:43:48;;;;;;;1.80;1.70;;;21.60;90.70;;;-142.21;100.00;112049.66;5136519;27;20218;-79
2022/09/15 06:46:18;;;;;;;2.50;1.90;;;21.60;90.70;;;-142.21;100.00;112049.66;5135784;27;20227;-80
2022/09/15 06:48:45;;;;;;;1.70;1.60;;;21.50;90.60;;;-142.21;100.00;112049.66;5136138;27;20258;-78
2022/09/15 06:51:15;;;;;;;2.03;1.83;;;21.50;90.50;;;-142.21;100.00;112049.66;5135639;27;20294;-79
2022/09/15 06:53:43;;;;;;;2.47;2.17;;;21.50;90.60;;;-142.21;100.00;112049.66;5136291;27;20199;-79
2022/09/15 06:56:13;;;;;;;3.33;2.03;;;21.40;90.50;;;-142.21;100.00;112049.66;5135332;27;20203;-79
2022/09/15 06:58:44;;;;;;;4.73;2.00;;;21.40;90.70;;;-142.21;100.00;112049.66;5135986;27;20183;-79
2022/09/15 07:01:14;;;;;;;1.57;1.47;;;21.30;90.80;;;-142.21;100.00;112049.66;5135538;27;20290;-79
2022/09/15 07:03:43;;;;;;;1.87;1.60;;;21.40;91.20;;;-142.21;100.00;112049.66;5136806;27;20187;-79
2022/09/15 07:06:12;;;;;;;1.60;1.50;;;21.30;90.80;;;-142.21;100.00;112049.66;5135238;27;20207;-80
2022/09/15 07:08:40;;;;;;;3.23;1.80;;;21.20;91.10;;;-142.21;100.00;112049.66;5135756;27;20683;-81
2022/09/15 07:11:08;;;;;;;2.23;1.60;;;21.30;91.40;;;-142.21;100.00;112049.66;5135402;27;20635;-80
2022/09/15 07:13:39;;;;;;;3.60;1.50;;;21.40;91.20;;;-142.21;100.00;112049.66;5134561;27;20223;-84
2022/09/15 07:16:11;;;;;;;2.47;2.13;;;21.50;90.20;;;-142.21;100.00;112049.66;5135929;27;20187;-83
2022/09/15 07:18:38;;;;;;;4.97;3.17;;;21.60;87.60;;;-142.21;100.00;112049.66;5136603;27;20191;-86
2022/09/15 07:21:09;;;;;;;4.97;3.80;;;21.50;86.40;;;-142.21;100.00;112049.66;5135057;27;20222;-77
2022/09/15 07:23:36;;;;;;;4.70;4.27;;;21.50;85.10;;;-142.21;100.00;112049.66;5135903;27;20248;-84
2022/09/15 07:26:09;;;;;;;6.63;5.17;;;21.40;84.20;;;-142.21;100.00;112049.66;5135515;27;20298;-85
2022/09/15 07:28:37;;;;;;;5.77;5.10;;;21.40;83.60;;;-142.21;100.00;112049.66;5135385;27;20223;-80
2022/09/15 07:31:08;;;;;;;6.80;4.57;;;21.30;83.80;;;-142.21;100.00;112049.66;5134449;27;20288;-80
2022/09/15 07:33:36;;;;;;;5.97;4.90;;;21.30;83.40;;;-142.21;100.00;112049.66;5135426;27;20252;-79
2022/09/15 07:36:05;;;;;;;6.30;4.80;;;21.20;83.00;;;-142.21;100.00;112049.66;5134695;27;20207;-77
2022/09/15 07:38:33;;;;;;;5.73;5.10;;;21.20;82.90;;;-142.21;100.00;112049.66;5135626;27;20238;-79
2022/09/15 07:41:04;;;;;;;5.67;4.93;;;21.20;82.60;;;-142.21;100.00;112049.66;5135064;27;20252;-79
2022/09/15 07:43:32;;;;;;;6.30;5.33;;;21.10;82.70;;;-142.21;100.00;112049.66;5135792;27;20206;-80
2022/09/15 07:45:59;;;;;;;6.23;5.53;;;21.10;82.70;;;-142.21;100.00;112049.66;5135448;27;20203;-79
2022/09/15 07:48:29;;;;;;;5.97;5.23;;;21.10;82.50;;;-142.21;100.00;112049.66;5134159;27;20215;-78
2022/09/15 07:50:58;;;;;;;6.70;5.40;;;21.10;82.70;;;-142.21;100.00;112049.66;5134753;27;20202;-80
2022/09/15 07:53:27;;;;;;;7.00;5.37;;;21.00;82.30;;;-142.21;100.00;112049.66;5134511;27;20225;-80
2022/09/15 07:55:55;;;;;;;6.67;4.90;;;21.00;82.50;;;-142.21;100.00;112049.66;5135125;27;20239;-78
2022/09/15 07:58:24;;;;;;;5.23;4.60;;;21.00;82.60;;;-142.21;100.00;112049.66;5134279;27;20210;-79
2022/09/15 08:00:52;;;;;;;7.70;5.07;;;20.90;82.40;;;-142.21;100.00;112049.66;5134803;27;20199;-80
2022/09/15 08:03:19;;;;;;;5.93;5.10;;;20.90;82.50;;;-142.21;100.00;112049.66;5133815;27;20214;-78
2022/09/15 08:05:48;;;;;;;5.00;4.37;;;20.80;82.50;;;-142.21;100.00;112049.66;5134616;27;20235;-77
2022/09/15 08:08:16;;;;;;;4.30;3.90;;;20.90;82.40;;;-142.21;100.00;112049.66;5134229;27;20271;-81
2022/09/15 08:10:43;;;;;;;4.67;4.00;;;20.80;82.40;;;-142.21;100.00;112049.66;5134871;27;20209;-80
2022/09/15 08:13:10;;;;;;;4.77;4.10;;;20.80;82.70;;;-142.21;100.00;112049.66;5133731;27;20203;-78
2022/09/15 08:15:38;;;;;;;6.17;4.27;;;20.80;82.80;;;-142.21;100.00;112049.66;5134649;27;20260;-80
2022/09/15 08:18:06;;;;;;;4.00;3.40;;;20.80;83.00;;;-142.21;100.00;112049.66;5133901;27;20222;-79
2022/09/15 08:20:34;;;;;;;4.20;3.40;;;20.70;83.10;;;-142.21;100.00;112049.66;5134680;27;20242;-82
2022/09/15 08:23:02;;;;;;;4.43;3.17;;;20.70;82.90;;;-142.21;100.00;112049.66;5134157;27;20191;-78
2022/09/15 08:25:31;;;;;;;3.60;3.30;;;20.70;82.70;;;-142.21;100.00;112049.66;5134548;27;20199;-81
2022/09/15 08:27:58;;;;;;;4.03;3.60;;;20.70;82.30;;;-142.21;100.00;112049.66;5134309;27;20703;-80
2022/09/15 08:30:26;;;;;;;6.07;4.20;;;20.80;82.30;;;-142.21;100.00;112049.66;5133236;27;20659;-79
2022/09/15 08:32:54;;;;;;;7.07;3.70;;;20.80;82.50;;;-142.21;100.00;112049.66;5133751;27;20632;-80
2022/09/15 08:35:21;;;;;;;4.93;3.47;;;20.80;82.50;;;-142.21;100.00;112049.66;5133892;27;20234;-79
2022/09/15 08:37:49;;;;;;;4.63;3.33;;;20.80;82.40;;;-142.21;100.00;112049.66;5134375;27;20203;-81
2022/09/15 08:40:26;;;;;;;5.17;3.80;;;20.80;82.40;;;-142.21;100.00;112049.66;5133774;27;20191;-80
2022/09/15 08:42:59;;;;;;;5.53;4.00;;;20.80;82.60;;;-142.21;100.00;112049.66;5134108;27;20191;-80
2022/09/15 08:45:34;;;;;;;4.93;4.00;;;20.80;82.50;;;-142.21;100.00;112049.66;5133588;27;20195;-80
2022/09/15 08:48:07;;;;;;;4.93;3.77;;;20.70;82.40;;;-142.21;100.00;112049.66;5133726;27;20586;-78
2022/09/15 08:50:40;;;;;;;5.77;3.57;;;20.70;82.20;;;-142.21;100.00;112049.66;5134277;27;20304;-77
2022/09/15 08:53:15;;;;;;;5.60;4.03;;;20.70;82.60;;;-142.21;100.00;112049.66;5133490;27;20666;-80
2022/09/15 08:55:50;;;;;;;5.03;4.13;;;20.70;82.80;;;-142.21;100.00;112049.66;5134015;27;20218;-78
2022/09/15 08:58:20;;;;;;;4.17;3.50;;;20.60;83.00;;;-142.21;100.00;112049.66;5133184;27;20273;-80
2022/09/15 09:01:05;;;;;;;5.00;4.10;;;20.60;82.70;;;-142.21;100.00;112049.66;5133590;27;20235;-80
2022/09/15 09:03:51;;;;;;;5.03;3.87;;;20.60;82.60;;;-142.21;100.00;112049.66;5133521;27;20689;-80
2022/09/15 09:06:36;;;;;;;4.73;3.57;;;20.60;82.50;;;-142.21;100.00;112049.66;5132937;27;20183;-81
2022/09/15 09:09:24;;;;;;;4.40;3.60;;;20.50;82.80;;;-142.21;100.00;112049.66;5133608;27;20246;-79
2022/09/15 09:12:29;;;;;;;5.20;3.30;;;20.50;83.00;;;-142.21;100.00;112049.66;5133732;27;20243;-79
2022/09/15 09:15:34;;;;;;;4.27;3.43;;;20.50;82.80;;;-142.21;100.00;112049.66;5112647;28;20216;-80
2022/09/15 09:18:35;;;;;;;4.90;3.87;;;20.40;83.40;;;-142.21;100.00;112049.66;5110939;28;20242;-78
2022/09/15 09:21:14;;;;;;;4.33;3.40;;;20.40;83.00;;;-142.21;100.00;112049.66;5068300;28;20252;-80
2022/09/15 09:23:50;;;;;;;3.80;3.10;;;20.40;82.70;;;-142.21;100.00;112049.66;5113171;28;20594;-80
2022/09/15 09:26:17;;;;;;;6.97;3.20;;;20.40;82.60;;;-142.21;100.00;112049.66;5112047;28;20636;-81
2022/09/15 09:28:56;;;;;;;4.90;3.03;;;20.40;82.40;;;-142.21;100.00;112049.66;5112648;28;20231;-80
2022/09/15 09:31:27;;;;;;;3.00;2.70;;;20.30;82.10;;;-142.21;100.00;112049.66;5111723;28;20279;-80
2022/09/15 09:34:03;;;;;;;4.80;2.80;;;20.40;82.20;;;-142.21;100.00;112049.66;5112861;28;20591;-80
2022/09/15 09:36:30;;;;;;;4.97;2.87;;;20.40;82.20;;;-142.21;100.00;112049.66;5111800;28;20195;-80
2022/09/15 09:38:58;;;;;;;5.03;2.97;;;20.40;82.30;;;-142.21;100.00;112049.66;5112508;28;20655;-79
2022/09/15 09:41:34;;;;;;;5.57;3.03;;;20.40;82.20;;;-142.21;100.00;112049.66;5132645;27;20205;-80
2022/09/15 09:44:06;;;;;;;3.30;2.47;;;20.30;82.20;;;-142.21;100.00;112049.66;5132709;27;20187;-79
2022/09/15 09:46:34;;;;;;;4.33;3.17;;;20.30;81.80;;;-142.21;100.00;112049.66;5132341;27;20232;-79
2022/09/15 09:49:05;;;;;;;5.37;3.30;;;20.40;81.70;;;-142.21;100.00;112049.66;5132908;27;20632;-79
2022/09/15 09:51:37;;;;;;;4.93;3.07;;;20.40;81.90;;;-142.21;100.00;112049.66;5132659;28;20222;-79
2022/09/15 09:54:14;;;;;;;3.50;2.57;;;20.40;82.20;;;-142.21;100.00;112049.66;5133284;28;20251;-80
2022/09/15 09:56:43;;;;;;;3.63;2.83;;;20.40;82.10;;;-142.21;100.00;112049.66;5133106;28;20187;-80
2022/09/15 09:59:39;;;;;;;4.43;2.90;;;20.30;81.70;;;-142.21;100.00;112049.66;5131887;28;20203;-80
2022/09/15 10:02:19;;;;;;;4.17;3.20;;;20.30;82.70;;;-142.21;100.00;112049.66;5133374;28;20203;-80
2022/09/15 10:04:48;;;;;;;4.20;2.90;;;20.30;83.10;;;-142.21;100.00;112049.66;5132725;28;20643;-80
2022/09/15 10:07:20;;;;;;;4.03;3.20;;;20.30;83.00;;;-142.21;100.00;112049.66;5132437;28;20206;-80
2022/09/15 10:09:54;;;;;;;3.80;2.97;;;20.30;83.30;;;-142.21;100.00;112049.66;5132870;28;20226;-80